createdAt,value
2023-02-14T00:00:22.828Z,6.70
2023-02-14T00:02:53.585Z,8.98
2023-02-14T00:05:24.017Z,5.57
2023-02-14T00:07:55.151Z,6.25
2023-02-14T00:10:31.529Z,5.10
2023-02-14T00:13:02.957Z,5.82
2023-02-14T00:15:30.128Z,7.12
2023-02-14T00:18:01.562Z,6.18
2023-02-14T00:20:35.203Z,6.65
2023-02-14T00:23:04.608Z,7.72
2023-02-14T00:25:37.839Z,5.40
2023-02-14T00:28:11.507Z,5.57
2023-02-14T00:30:42.405Z,5.32
2023-02-14T00:33:14.494Z,5.03
2023-02-14T00:35:47.883Z,5.60
2023-02-14T00:38:18.162Z,5.95
2023-02-14T00:40:48.407Z,4.53
2023-02-14T00:43:21.752Z,4.28
2023-02-14T00:45:50.201Z,4.15
2023-02-14T00:48:20.128Z,4.75
2023-02-14T00:50:49.990Z,4.97
2023-02-14T00:53:20.881Z,5.85
2023-02-14T00:55:48.041Z,5.18
2023-02-14T00:58:18.184Z,4.60
2023-02-14T01:00:51.738Z,3.92
2023-02-14T01:03:20.277Z,4.75
2023-02-14T01:05:56.589Z,4.85
2023-02-14T01:08:27.892Z,5.00
2023-02-14T01:11:17.385Z,4.45
2023-02-14T01:13:46.492Z,4.62
2023-02-14T01:16:21.823Z,4.90
2023-02-14T01:18:55.558Z,5.30
2023-02-14T01:21:30.807Z,4.47
2023-02-14T01:24:01.018Z,5.18
2023-02-14T01:26:31.940Z,4.60
2023-02-14T01:29:02.239Z,4.50
2023-02-14T01:31:39.641Z,4.90
2023-02-14T01:34:07.163Z,4.55
2023-02-14T01:36:38.187Z,3.72
2023-02-14T01:39:08.834Z,5.10
2023-02-14T01:41:45.010Z,4.85
2023-02-14T01:44:18.496Z,4.20
2023-02-14T01:46:48.867Z,4.82
2023-02-14T01:49:26.055Z,4.90
2023-02-14T01:52:20.586Z,4.07
2023-02-14T01:55:02.083Z,4.30
2023-02-14T01:57:36.260Z,5.10
2023-02-14T02:00:06.969Z,4.75
2023-02-14T02:02:37.473Z,4.85
2023-02-14T02:05:05.603Z,4.60
2023-02-14T02:07:37.166Z,3.70
2023-02-14T02:10:11.798Z,3.62
2023-02-14T02:12:42.755Z,4.18
2023-02-14T02:15:13.470Z,5.37
2023-02-14T02:17:59.100Z,4.50
2023-02-14T02:20:44.236Z,4.47
2023-02-14T02:23:29.450Z,4.28
2023-02-14T02:26:48.877Z,4.18
2023-02-14T02:29:37.416Z,4.55
2023-02-14T02:32:31.607Z,4.03
2023-02-14T02:35:16.462Z,4.80
2023-02-14T02:37:50.581Z,3.60
2023-02-14T02:40:43.917Z,3.80
2023-02-14T02:43:51.787Z,4.22
2023-02-14T02:46:32.657Z,3.67
2023-02-14T02:49:36.127Z,3.67
2023-02-14T02:52:21.492Z,3.30
2023-02-14T02:55:08.769Z,4.57
2023-02-14T02:57:40.869Z,4.93
2023-02-14T03:00:15.074Z,2.97
2023-02-14T03:02:53.575Z,4.45
2023-02-14T03:05:24.896Z,4.25
2023-02-14T03:07:56.358Z,4.40
2023-02-14T03:10:31.491Z,3.70
2023-02-14T03:13:28.606Z,3.22
2023-02-14T03:16:01.554Z,3.78
2023-02-14T03:21:23.946Z,3.20
2023-02-14T03:24:17.064Z,3.10
2023-02-14T03:26:57.635Z,3.40
2023-02-14T03:29:44.166Z,3.25
2023-02-14T03:32:42.693Z,4.22
2023-02-14T03:35:38.304Z,6.82
2023-02-14T03:38:27.318Z,3.47
2023-02-14T03:41:00.893Z,3.30
2023-02-14T03:43:39.613Z,3.37
2023-02-14T03:46:26.283Z,2.90
2023-02-14T03:48:57.486Z,3.62
2023-02-14T03:51:33.953Z,2.83
2023-02-14T03:54:09.939Z,3.67
2023-02-14T03:56:47.274Z,4.12
2023-02-14T03:59:22.824Z,3.28
2023-02-14T04:01:56.449Z,2.80
2023-02-14T04:04:28.058Z,3.20
2023-02-14T04:06:55.849Z,3.53
2023-02-14T04:09:23.327Z,3.10
2023-02-14T04:11:53.564Z,3.37
2023-02-14T04:14:23.721Z,3.35
2023-02-14T04:16:51.088Z,3.00
2023-02-14T04:19:18.064Z,3.17
2023-02-14T04:21:47.575Z,3.03
2023-02-14T04:24:14.699Z,4.55
2023-02-14T04:26:48.267Z,3.05
2023-02-14T04:29:15.364Z,2.65
2023-02-14T04:31:45.961Z,3.10
2023-02-14T04:34:16.567Z,3.33
2023-02-14T04:36:46.940Z,3.42
2023-02-14T04:39:17.563Z,3.42
2023-02-14T04:41:44.892Z,3.33
2023-02-14T04:44:15.164Z,2.92
2023-02-14T04:46:44.837Z,2.85
2023-02-14T04:49:12.298Z,3.25
2023-02-14T04:51:39.601Z,3.37
2023-02-14T04:54:15.546Z,2.83
2023-02-14T04:56:42.997Z,3.00
2023-02-14T04:59:13.201Z,2.80
2023-02-14T05:01:43.686Z,3.05
2023-02-14T05:04:19.036Z,3.22
2023-02-14T05:06:50.239Z,2.90
2023-02-14T05:09:17.791Z,2.42
2023-02-14T05:11:50.847Z,3.33
2023-02-14T05:16:49.209Z,2.62
2023-02-14T05:19:19.191Z,2.42
2023-02-14T05:21:49.186Z,3.03
2023-02-14T05:24:19.599Z,2.28
2023-02-14T05:26:50.859Z,3.45
2023-02-14T05:29:24.534Z,3.47
2023-02-14T05:31:55.074Z,2.85
2023-02-14T05:34:28.540Z,3.03
2023-02-14T05:37:02.270Z,3.00
2023-02-14T05:39:30.346Z,3.62
2023-02-14T05:42:06.429Z,5.82
2023-02-14T05:44:35.947Z,5.62
2023-02-14T05:47:08.699Z,9.05
2023-02-14T05:49:39.036Z,12.20
2023-02-14T05:52:09.189Z,8.00
2023-02-14T05:54:39.743Z,4.40
2023-02-14T05:57:12.802Z,3.53
2023-02-14T06:02:55.286Z,3.22
2023-02-14T06:05:29.946Z,4.10
2023-02-14T06:08:02.572Z,3.33
2023-02-14T06:10:29.883Z,3.78
2023-02-14T06:12:57.368Z,6.95
2023-02-14T06:15:30.848Z,6.35
2023-02-14T06:18:04.272Z,4.78
2023-02-14T06:20:35.569Z,6.22
2023-02-14T06:23:08.805Z,5.00
2023-02-14T06:25:39.908Z,12.18
2023-02-14T06:28:09.676Z,2.85
2023-02-14T06:30:36.849Z,4.40
2023-02-14T06:33:04.108Z,3.83
2023-02-14T06:35:34.268Z,4.50
2023-02-14T06:38:07.856Z,8.90
2023-02-14T06:40:41.230Z,7.65
2023-02-14T06:43:17.682Z,9.45
2023-02-14T06:45:49.011Z,2.67
2023-02-14T06:48:19.039Z,4.22
2023-02-14T06:50:51.947Z,9.07
2023-02-14T06:53:27.418Z,4.03
2023-02-14T06:55:59.838Z,9.55
2023-02-14T06:58:27.788Z,5.95
2023-02-14T07:01:03.454Z,2.70
2023-02-14T07:03:36.473Z,7.90
2023-02-14T07:06:12.713Z,5.62
2023-02-14T07:08:41.038Z,7.25
2023-02-14T07:11:13.622Z,5.37
2023-02-14T07:13:43.737Z,15.85
2023-02-14T07:16:14.572Z,25.70
2023-02-14T07:18:45.074Z,23.80
2023-02-14T07:21:14.659Z,41.72
2023-02-14T07:23:44.392Z,28.33
2023-02-14T07:26:18.002Z,21.45
2023-02-14T07:28:49.503Z,25.80
2023-02-14T07:31:21.047Z,24.95
2023-02-14T07:33:47.919Z,20.17
2023-02-14T07:36:19.908Z,19.50
2023-02-14T07:38:47.004Z,26.80
2023-02-14T07:41:16.390Z,20.92
2023-02-14T07:43:47.164Z,16.40
2023-02-14T07:46:13.998Z,17.02
2023-02-14T07:48:46.821Z,17.65
2023-02-14T07:51:25.213Z,12.52
2023-02-14T07:53:52.627Z,10.07
2023-02-14T07:56:19.915Z,10.15
2023-02-14T07:58:47.043Z,10.98
2023-02-14T08:01:18.834Z,12.60
2023-02-14T08:03:49.299Z,16.25
2023-02-14T08:06:20.296Z,10.88
2023-02-14T08:08:48.128Z,17.10
2023-02-14T08:11:18.150Z,18.95
2023-02-14T08:13:47.686Z,13.55
2023-02-14T08:16:17.650Z,11.68
2023-02-14T08:18:47.806Z,13.77
2023-02-14T08:21:21.353Z,13.40
2023-02-14T08:23:51.502Z,14.80
2023-02-14T08:26:20.978Z,10.48
2023-02-14T08:28:50.416Z,11.75
2023-02-14T08:31:35.243Z,11.23
2023-02-14T08:34:04.600Z,12.48
2023-02-14T08:36:35.296Z,10.73
2023-02-14T08:39:08.051Z,13.00
2023-02-14T08:41:40.375Z,13.35
2023-02-14T08:44:10.281Z,16.20
2023-02-14T08:46:43.649Z,12.25
2023-02-14T08:49:10.810Z,11.90
2023-02-14T08:51:40.652Z,12.98
2023-02-14T08:54:07.513Z,12.40
2023-02-14T08:56:34.380Z,11.50
2023-02-14T08:59:01.284Z,14.07
2023-02-14T09:01:31.924Z,9.93
2023-02-14T09:04:01.387Z,9.98
2023-02-14T09:06:30.949Z,10.70
2023-02-14T09:09:03.445Z,10.18
2023-02-14T09:11:33.435Z,13.93
2023-02-14T09:14:00.171Z,15.90
2023-02-14T09:16:30.975Z,11.93
2023-02-14T09:19:00.449Z,9.50
2023-02-14T09:21:30.860Z,13.77
2023-02-14T09:24:01.500Z,11.63
2023-02-14T09:26:31.517Z,11.70
2023-02-14T09:29:01.444Z,11.98
2023-02-14T09:31:34.466Z,12.27
2023-02-14T09:34:06.733Z,8.88
2023-02-14T09:36:33.609Z,14.93
2023-02-14T09:39:03.378Z,14.10
2023-02-14T09:41:46.390Z,12.65
2023-02-14T09:44:45.213Z,13.25
2023-02-14T09:47:24.199Z,10.10
2023-02-14T09:49:52.600Z,12.43
2023-02-14T09:52:27.779Z,11.88
2023-02-14T09:55:13.411Z,10.43
2023-02-14T09:58:02.820Z,13.40
2023-02-14T10:00:41.468Z,11.27
2023-02-14T10:03:35.183Z,8.38
2023-02-14T10:06:29.138Z,13.57
2023-02-14T10:09:26.478Z,9.68
2023-02-14T10:11:59.464Z,13.85
2023-02-14T10:17:28.981Z,10.05
2023-02-14T10:20:04.766Z,10.77
2023-02-14T10:22:46.838Z,10.45
2023-02-14T10:25:27.425Z,8.52
2023-02-14T10:28:01.524Z,12.75
2023-02-14T10:30:39.734Z,9.13
2023-02-14T10:33:26.727Z,12.93
2023-02-14T10:36:05.848Z,8.57
2023-02-14T10:38:55.399Z,7.97
2023-02-14T10:41:50.086Z,9.55
2023-02-14T10:44:56.750Z,9.70
2023-02-14T10:47:38.450Z,9.02
2023-02-14T10:50:16.706Z,8.40
2023-02-14T10:52:55.958Z,7.05
2023-02-14T10:55:50.945Z,7.10
2023-02-14T10:58:26.252Z,9.68
2023-02-14T11:01:03.000Z,5.62
2023-02-14T11:03:44.313Z,6.37
2023-02-14T11:06:16.584Z,6.85
2023-02-14T11:08:53.787Z,6.30
2023-02-14T11:11:35.280Z,8.30
2023-02-14T11:14:36.718Z,5.50
2023-02-14T11:17:30.149Z,6.53
2023-02-14T11:20:02.049Z,7.25
2023-02-14T11:22:37.023Z,6.78
2023-02-14T11:25:26.288Z,5.93
2023-02-14T11:28:08.437Z,9.00
2023-02-14T11:30:46.930Z,6.95
2023-02-14T11:33:43.283Z,5.50
2023-02-14T11:36:20.297Z,6.00
2023-02-14T11:39:28.594Z,6.28
2023-02-14T11:42:05.592Z,5.93
2023-02-14T11:44:36.665Z,6.75
2023-02-14T11:47:27.548Z,4.72
2023-02-14T11:50:09.870Z,5.00
2023-02-14T11:52:58.955Z,5.60
2023-02-14T11:55:39.802Z,6.45
2023-02-14T11:58:09.631Z,5.18
2023-02-14T12:00:39.844Z,8.57
2023-02-14T12:03:09.783Z,23.15
2023-02-14T12:05:49.525Z,10.10
2023-02-14T12:08:28.011Z,5.53
2023-02-14T12:11:18.413Z,7.75
2023-02-14T12:13:56.640Z,5.85
2023-02-14T12:16:39.107Z,5.28
2023-02-14T12:19:24.478Z,11.02
2023-02-14T12:22:03.033Z,5.40
2023-02-14T12:24:38.381Z,6.20
2023-02-14T12:27:18.924Z,5.90
2023-02-14T12:29:59.785Z,8.57
2023-02-14T12:32:29.774Z,5.03
2023-02-14T12:35:28.302Z,8.93
2023-02-14T12:38:34.124Z,8.60
2023-02-14T12:41:22.162Z,5.45
2023-02-14T12:43:53.476Z,6.93
2023-02-14T12:47:01.262Z,4.53
2023-02-14T12:49:54.750Z,6.80
2023-02-14T12:55:42.390Z,6.28
2023-02-14T12:58:18.290Z,5.85
2023-02-14T13:01:09.780Z,4.93
2023-02-14T13:04:07.489Z,6.03
2023-02-14T13:06:39.925Z,5.53
2023-02-14T13:09:16.011Z,7.87
2023-02-14T13:12:27.984Z,10.88
2023-02-14T13:15:38.001Z,14.73
2023-02-14T13:18:31.027Z,8.05
2023-02-14T13:21:04.891Z,15.13
2023-02-14T13:23:45.092Z,6.78
2023-02-14T13:26:20.621Z,7.93
2023-02-14T13:28:56.899Z,6.90
2023-02-14T13:31:24.124Z,9.52
2023-02-14T13:34:02.029Z,7.45
2023-02-14T13:36:36.071Z,5.72
2023-02-14T13:39:04.611Z,6.85
2023-02-14T13:41:32.309Z,5.18
2023-02-14T13:44:02.937Z,10.00
2023-02-14T13:46:36.219Z,5.60
2023-02-14T13:49:24.317Z,7.68
2023-02-14T13:51:59.557Z,6.18
2023-02-14T13:54:46.716Z,6.43
2023-02-14T13:57:39.050Z,5.57
2023-02-14T14:00:40.042Z,5.97
2023-02-14T14:03:27.842Z,7.97
2023-02-14T14:06:08.904Z,8.73
2023-02-14T14:08:50.549Z,10.43
2023-02-14T14:11:26.089Z,8.75
2023-02-14T14:14:04.149Z,6.25
2023-02-14T14:16:36.168Z,3.35
2023-02-14T14:19:21.229Z,6.00
2023-02-14T14:22:07.155Z,6.35
2023-02-14T14:24:37.460Z,7.45
2023-02-14T14:27:07.684Z,5.97
2023-02-14T14:29:42.979Z,4.20
2023-02-14T14:32:18.398Z,8.02
2023-02-14T14:34:56.093Z,5.65
2023-02-14T14:37:30.811Z,5.03
2023-02-14T14:40:00.974Z,5.03
2023-02-14T14:42:38.031Z,5.43
2023-02-14T14:45:09.474Z,4.22
2023-02-14T14:47:42.887Z,9.98
2023-02-14T14:50:24.446Z,13.07
2023-02-14T14:53:00.321Z,5.90
2023-02-14T14:55:33.152Z,6.93
2023-02-14T14:58:24.862Z,8.02
2023-02-14T15:00:51.996Z,6.28
2023-02-14T15:03:22.944Z,5.45
2023-02-14T15:05:50.848Z,5.50
2023-02-14T15:08:22.282Z,7.55
2023-02-14T15:11:11.951Z,10.95
2023-02-14T15:13:46.545Z,6.70
2023-02-14T15:16:18.638Z,4.53
2023-02-14T15:18:46.269Z,5.33
2023-02-14T15:21:16.821Z,6.55
2023-02-14T15:23:45.874Z,4.85
2023-02-14T15:26:29.842Z,5.20
2023-02-14T15:29:05.698Z,7.10
2023-02-14T15:31:40.784Z,5.10
2023-02-14T15:34:12.385Z,5.30
2023-02-14T15:36:45.076Z,6.72
2023-02-14T15:39:17.068Z,4.43
2023-02-14T15:41:47.059Z,5.37
2023-02-14T15:44:22.463Z,6.18
2023-02-14T15:47:03.047Z,5.12
2023-02-14T15:49:39.970Z,3.45
2023-02-14T15:52:16.007Z,4.50
2023-02-14T15:54:45.826Z,8.65
2023-02-14T15:57:26.274Z,4.57
2023-02-14T15:59:53.584Z,6.28
2023-02-14T16:02:37.163Z,4.45
2023-02-14T16:05:20.474Z,9.45
2023-02-14T16:10:33.203Z,10.70
2023-02-14T16:13:14.890Z,11.45
2023-02-14T16:15:59.981Z,18.00
2023-02-14T16:18:40.511Z,6.25
2023-02-14T16:21:21.194Z,8.45
2023-02-14T16:24:08.504Z,12.27
2023-02-14T16:26:42.836Z,11.45
2023-02-14T16:29:15.196Z,11.88
2023-02-14T16:32:14.649Z,11.40
2023-02-14T16:35:29.724Z,10.05
2023-02-14T16:37:59.563Z,25.52
2023-02-14T16:40:28.154Z,22.77
2023-02-14T16:42:54.912Z,21.12
2023-02-14T16:45:27.659Z,25.35
2023-02-14T16:47:59.003Z,24.48
2023-02-14T16:50:28.896Z,17.12
2023-02-14T16:52:58.695Z,14.35
2023-02-14T16:55:29.271Z,14.68
2023-02-14T16:57:57.754Z,15.88
2023-02-14T17:00:24.562Z,19.48
2023-02-14T17:02:51.338Z,15.60
2023-02-14T17:05:18.460Z,12.27
2023-02-14T17:07:48.926Z,15.43
2023-02-14T17:10:18.409Z,13.68
2023-02-14T17:12:49.765Z,15.23
2023-02-14T17:15:21.900Z,17.80
2023-02-14T17:17:50.183Z,13.57
2023-02-14T17:20:17.762Z,10.85
2023-02-14T17:22:49.661Z,13.65
2023-02-14T17:25:22.701Z,12.02
2023-02-14T17:27:50.347Z,8.15
2023-02-14T17:30:18.538Z,9.15
2023-02-14T17:32:50.484Z,8.60
2023-02-14T17:38:40.734Z,8.32
2023-02-14T17:41:45.378Z,10.57
2023-02-14T17:44:12.807Z,14.87
2023-02-14T17:46:50.294Z,8.23
2023-02-14T17:49:59.790Z,10.57
2023-02-14T17:52:30.339Z,9.00
2023-02-14T17:55:06.005Z,17.20
2023-02-14T17:57:39.441Z,13.95
2023-02-14T18:00:12.207Z,9.80
2023-02-14T18:05:29.066Z,13.62
2023-02-14T18:08:11.516Z,17.55
2023-02-14T18:10:42.747Z,21.70
2023-02-14T18:13:24.145Z,13.20
2023-02-14T18:15:54.140Z,10.88
2023-02-14T18:18:30.931Z,11.18
2023-02-14T18:21:03.174Z,11.45
2023-02-14T18:23:34.768Z,13.05
2023-02-14T18:26:11.285Z,13.62
2023-02-14T18:32:07.179Z,10.80
2023-02-14T18:34:52.263Z,13.15
2023-02-14T18:37:38.457Z,7.85
2023-02-14T18:40:22.368Z,6.85
2023-02-14T18:43:12.493Z,12.13
2023-02-14T18:46:12.292Z,9.32
2023-02-14T18:48:59.253Z,12.05
2023-02-14T18:51:53.459Z,12.02
2023-02-14T18:54:37.895Z,13.50
2023-02-14T18:57:13.112Z,10.27
2023-02-14T18:59:40.281Z,6.62
2023-02-14T19:02:16.870Z,9.30
2023-02-14T19:04:53.897Z,6.60
2023-02-14T19:07:40.070Z,6.60
2023-02-14T19:10:27.914Z,13.20
2023-02-14T19:13:34.993Z,8.10
2023-02-14T19:45:01.793Z,8.23
2023-02-14T20:01:00.015Z,6.40
2023-02-14T20:07:29.897Z,6.28
2023-02-14T20:10:21.659Z,7.68
2023-02-14T20:13:03.322Z,13.30
2023-02-14T20:16:23.427Z,8.38
2023-02-14T20:19:25.922Z,11.93
2023-02-14T20:22:07.854Z,8.63
2023-02-14T20:25:08.191Z,10.02
2023-02-14T20:27:41.904Z,6.80
2023-02-14T20:30:25.260Z,6.53
2023-02-14T20:33:15.646Z,9.98
2023-02-14T20:36:09.603Z,12.00
2023-02-14T20:39:18.326Z,10.10
2023-02-14T20:42:19.509Z,14.02
2023-02-14T20:48:55.960Z,6.53
2023-02-14T20:51:35.973Z,8.15
2023-02-14T20:54:17.974Z,8.40
2023-02-14T20:57:04.932Z,7.45
2023-02-14T21:06:33.314Z,7.03
2023-02-14T21:09:56.027Z,8.30
2023-02-14T21:12:41.346Z,5.72
2023-02-14T21:15:18.796Z,7.95
2023-02-14T21:18:00.646Z,7.80
2023-02-14T21:21:20.697Z,6.90
2023-02-14T21:24:06.751Z,7.22
2023-02-14T21:26:40.343Z,7.18
2023-02-14T21:29:30.752Z,8.85
2023-02-14T21:32:09.204Z,8.05
2023-02-14T21:34:57.174Z,8.57
2023-02-14T21:37:29.252Z,6.43
2023-02-14T21:40:19.645Z,8.70
2023-02-14T21:43:03.374Z,9.00
2023-02-14T21:45:53.258Z,6.87
2023-02-14T21:48:28.763Z,9.70
2023-02-14T21:51:11.726Z,8.75
2023-02-14T21:53:57.303Z,8.77
2023-02-14T21:57:07.655Z,7.03
2023-02-14T21:59:58.566Z,8.57
2023-02-14T22:02:39.286Z,8.23
2023-02-14T22:05:33.691Z,6.05
2023-02-14T22:08:15.944Z,10.80
2023-02-14T22:14:02.442Z,8.32
2023-02-14T22:16:43.206Z,9.45
2023-02-14T22:19:15.948Z,8.70
2023-02-14T22:21:44.707Z,9.43
2023-02-14T22:24:33.676Z,6.80
2023-02-14T22:27:03.721Z,6.47
2023-02-14T22:29:56.759Z,6.53
2023-02-14T22:35:35.112Z,8.35
2023-02-14T22:38:17.703Z,7.55
2023-02-14T22:41:06.558Z,7.82
2023-02-14T22:43:43.549Z,8.75
2023-02-14T22:46:22.566Z,6.72
2023-02-14T22:49:08.466Z,6.32
2023-02-14T22:52:05.355Z,6.68
2023-02-14T22:54:41.670Z,7.70
2023-02-14T22:57:24.948Z,7.45
2023-02-14T23:02:54.980Z,7.43
2023-02-14T23:05:26.164Z,8.85
2023-02-14T23:08:17.258Z,7.75
2023-02-14T23:11:09.130Z,7.60
2023-02-14T23:13:38.913Z,8.10
2023-02-14T23:16:10.680Z,6.72
2023-02-14T23:18:56.550Z,8.50
2023-02-14T23:21:36.465Z,7.87
2023-02-14T23:24:46.604Z,8.00
2023-02-14T23:27:30.246Z,7.65
2023-02-14T23:33:03.756Z,7.53
2023-02-14T23:35:37.617Z,7.35
2023-02-14T23:38:09.319Z,7.53
2023-02-14T23:40:37.511Z,7.60
2023-02-14T23:43:11.871Z,6.95
2023-02-14T23:45:51.693Z,6.85
2023-02-14T23:48:23.190Z,7.45
2023-02-14T23:50:52.898Z,8.55
2023-02-14T23:53:24.101Z,7.43
2023-02-14T23:56:10.922Z,7.55
2023-02-14T23:58:40.205Z,7.15
